Woodburn, Mississippi
Current Conditions -  °F | °C
As of 8:53 AM on Saturday 25 Oct 2014 (Local Time) from KGLH Reporting Station
Clear Clear  
Wind Chill: 63°   Ceiling: Unl
Heat Index: 63°   Visibility: 7mi
Dew Point: 56°   Wind: 8mph
Humidity: 78%   Direction: 260°W
Pressure: 30.14"   Gusts: NA
Location:  33.4825°N, 90.6856°W
Report Text: KGLH 251353Z AUTO 26007KT 7SM CLR 17/13 A3014 RMK AO2 SLP214 T01720133
Loading
Personal Weather Stations






























Interactive Weather Map
Tropical Storm Tracking
New forecast layout! Learn more

10-Day Weather Forecast

Advertisements
Track Severe Weather on mobile